createdAt,value
2022-10-09T00:01:06.994Z,14.63
2022-10-09T00:03:35.006Z,14.90
2022-10-09T00:06:02.436Z,15.77
2022-10-09T00:08:29.822Z,15.45
2022-10-09T00:10:56.846Z,15.75
2022-10-09T00:13:23.747Z,14.30
2022-10-09T00:15:50.696Z,14.87
2022-10-09T00:18:18.904Z,15.70
2022-10-09T00:20:46.755Z,15.30
2022-10-09T00:23:18.484Z,15.60
2022-10-09T00:25:53.699Z,15.45
2022-10-09T00:28:22.278Z,15.05
2022-10-09T00:30:49.325Z,15.95
2022-10-09T00:33:16.386Z,16.35
2022-10-09T00:35:43.322Z,17.02
2022-10-09T00:38:10.667Z,16.67
2022-10-09T00:40:38.398Z,16.85
2022-10-09T00:43:11.315Z,16.87
2022-10-09T00:45:38.438Z,17.83
2022-10-09T00:48:07.528Z,16.83
2022-10-09T00:50:40.823Z,18.23
2022-10-09T00:53:09.409Z,18.10
2022-10-09T00:55:37.243Z,18.52
2022-10-09T00:58:04.147Z,19.45
2022-10-09T01:00:31.002Z,20.10
2022-10-09T01:02:57.908Z,20.62
2022-10-09T01:05:41.325Z,20.00
2022-10-09T01:08:16.271Z,20.33
2022-10-09T01:10:59.202Z,22.73
2022-10-09T01:13:32.846Z,20.62
2022-10-09T01:16:23.986Z,19.30
2022-10-09T01:18:58.878Z,21.58
2022-10-09T01:21:46.344Z,21.92
2022-10-09T01:24:29.727Z,23.60
2022-10-09T01:27:00.915Z,23.62
2022-10-09T01:29:36.735Z,24.67
2022-10-09T01:32:04.415Z,23.10
2022-10-09T01:34:31.782Z,22.80
2022-10-09T01:36:59.352Z,23.12
2022-10-09T01:39:27.072Z,23.67
2022-10-09T01:41:54.398Z,22.77
2022-10-09T01:44:31.770Z,21.95
2022-10-09T01:46:59.177Z,22.00
2022-10-09T01:49:44.482Z,21.00
2022-10-09T01:52:41.394Z,22.52
2022-10-09T01:55:08.346Z,22.27
2022-10-09T01:57:48.368Z,22.30
2022-10-09T02:00:15.681Z,22.08
2022-10-09T02:02:43.454Z,21.95
2022-10-09T02:05:14.258Z,22.83
2022-10-09T02:07:41.463Z,22.85
2022-10-09T02:10:09.069Z,22.45
2022-10-09T02:12:39.394Z,22.90
2022-10-09T02:15:06.817Z,21.95
2022-10-09T02:17:35.609Z,21.37
2022-10-09T02:20:08.057Z,20.30
2022-10-09T02:22:36.441Z,20.23
2022-10-09T02:25:05.126Z,19.98
2022-10-09T02:27:32.839Z,19.90
2022-10-09T02:30:00.709Z,20.23
2022-10-09T02:32:28.625Z,18.90
2022-10-09T02:34:55.508Z,19.15
2022-10-09T02:37:22.348Z,19.87
2022-10-09T02:39:49.399Z,19.98
2022-10-09T02:42:16.237Z,19.73
2022-10-09T02:44:43.221Z,17.83
2022-10-09T02:47:10.107Z,18.77
2022-10-09T02:49:36.932Z,17.35
2022-10-09T02:52:03.802Z,18.30
2022-10-09T02:54:30.735Z,17.15
2022-10-09T02:56:57.592Z,17.45
2022-10-09T02:59:24.438Z,16.17
2022-10-09T03:01:51.361Z,17.48
2022-10-09T03:04:18.300Z,17.20
2022-10-09T03:06:45.152Z,16.40
2022-10-09T03:09:11.980Z,16.33
2022-10-09T03:11:38.827Z,16.12
2022-10-09T03:14:05.677Z,16.17
2022-10-09T03:16:32.595Z,15.35
2022-10-09T03:19:00.260Z,15.43
2022-10-09T03:21:28.092Z,14.50
2022-10-09T03:23:55.336Z,15.07
2022-10-09T03:26:24.757Z,14.80
2022-10-09T03:28:52.860Z,14.75
2022-10-09T03:31:49.929Z,13.90
2022-10-09T03:34:11.215Z,13.98
2022-10-09T03:36:38.111Z,14.45
2022-10-09T03:39:04.967Z,15.27
2022-10-09T03:41:31.855Z,15.32
2022-10-09T03:43:58.720Z,14.55
2022-10-09T03:46:25.639Z,15.05
2022-10-09T03:48:52.663Z,14.10
2022-10-09T03:51:19.493Z,13.35
2022-10-09T03:53:46.313Z,13.20
2022-10-09T03:56:13.172Z,13.48
2022-10-09T03:58:40.022Z,13.20
2022-10-09T04:01:06.915Z,13.30
2022-10-09T04:03:33.818Z,13.57
2022-10-09T04:06:00.662Z,12.73
2022-10-09T04:08:27.875Z,12.13
2022-10-09T04:10:58.894Z,12.10
2022-10-09T04:13:25.900Z,11.43
2022-10-09T04:15:54.023Z,9.98
2022-10-09T04:18:21.089Z,10.80
2022-10-09T04:20:52.699Z,10.52
2022-10-09T04:23:20.526Z,10.23
2022-10-09T04:25:47.400Z,10.75
2022-10-09T04:28:14.326Z,10.30
2022-10-09T04:30:41.587Z,10.27
2022-10-09T04:33:12.756Z,10.32
2022-10-09T04:35:49.532Z,10.50
2022-10-09T04:38:16.368Z,8.23
2022-10-09T04:40:43.251Z,8.38
2022-10-09T04:43:10.319Z,8.00
2022-10-09T04:45:40.809Z,8.65
2022-10-09T04:48:07.752Z,8.02
2022-10-09T04:50:34.601Z,8.38
2022-10-09T04:53:01.460Z,7.72
2022-10-09T04:55:28.272Z,9.05
2022-10-09T04:57:55.303Z,6.62
2022-10-09T05:00:22.535Z,7.43
2022-10-09T05:02:49.584Z,8.10
2022-10-09T05:05:16.793Z,7.10
2022-10-09T05:07:43.624Z,8.20
2022-10-09T05:10:10.496Z,7.87
2022-10-09T05:12:37.355Z,7.15
2022-10-09T05:15:05.023Z,6.75
2022-10-09T05:17:31.927Z,6.28
2022-10-09T05:19:58.919Z,6.05
2022-10-09T05:22:25.780Z,5.97
2022-10-09T05:24:52.603Z,6.25
2022-10-09T05:27:19.465Z,6.55
2022-10-09T05:29:46.310Z,5.72
2022-10-09T05:32:13.173Z,6.50
2022-10-09T05:34:40.075Z,6.68
2022-10-09T05:37:06.929Z,7.18
2022-10-09T05:39:36.035Z,7.82
2022-10-09T05:42:02.893Z,7.82
2022-10-09T05:44:29.824Z,7.47
2022-10-09T05:46:56.646Z,8.15
2022-10-09T05:49:23.767Z,7.65
2022-10-09T05:51:50.635Z,8.13
2022-10-09T05:54:18.301Z,7.95
2022-10-09T05:56:45.585Z,8.30
2022-10-09T05:59:15.267Z,7.97
2022-10-09T06:01:43.963Z,7.45
2022-10-09T06:04:19.840Z,7.68
2022-10-09T06:06:50.487Z,7.60
2022-10-09T06:09:22.291Z,7.97
2022-10-09T06:11:51.011Z,6.93
2022-10-09T06:14:18.383Z,7.65
2022-10-09T06:16:46.222Z,7.55
2022-10-09T06:19:15.259Z,8.32
2022-10-09T06:21:42.742Z,7.22
2022-10-09T06:24:17.222Z,7.72
2022-10-09T06:26:44.158Z,8.13
2022-10-09T06:29:11.026Z,8.05
2022-10-09T06:31:38.517Z,8.70
2022-10-09T06:34:05.488Z,8.40
2022-10-09T06:36:34.082Z,8.60
2022-10-09T06:39:02.445Z,8.32
2022-10-09T06:41:30.002Z,8.20
2022-10-09T06:43:59.179Z,8.02
2022-10-09T06:46:32.204Z,8.30
2022-10-09T06:49:00.371Z,7.95
2022-10-09T06:51:31.083Z,8.05
2022-10-09T06:53:59.891Z,8.50
2022-10-09T06:56:29.987Z,8.48
2022-10-09T06:58:59.181Z,7.95
2022-10-09T07:01:27.642Z,7.78
2022-10-09T07:03:56.937Z,7.53
2022-10-09T07:06:25.973Z,8.00
2022-10-09T07:08:55.262Z,8.18
2022-10-09T07:11:27.629Z,7.85
2022-10-09T07:13:56.444Z,7.53
2022-10-09T07:16:28.739Z,7.43
2022-10-09T07:18:55.842Z,7.05
2022-10-09T07:21:24.134Z,7.03
2022-10-09T07:23:50.995Z,6.12
2022-10-09T07:26:20.448Z,6.53
2022-10-09T07:28:48.506Z,6.30
2022-10-09T07:31:15.872Z,5.18
2022-10-09T07:33:42.964Z,6.00
2022-10-09T07:36:10.414Z,5.55
2022-10-09T07:38:37.243Z,5.18
2022-10-09T07:41:09.495Z,5.37
2022-10-09T07:43:40.825Z,5.55
2022-10-09T07:46:11.810Z,5.62
2022-10-09T07:48:39.192Z,5.30
2022-10-09T07:51:09.065Z,5.12
2022-10-09T07:53:36.279Z,4.47
2022-10-09T07:56:04.558Z,5.03
2022-10-09T07:58:31.757Z,4.55
2022-10-09T08:01:04.782Z,4.82
2022-10-09T08:03:31.669Z,5.00
2022-10-09T08:05:58.762Z,4.95
2022-10-09T08:08:25.723Z,5.10
2022-10-09T08:10:52.599Z,5.72
2022-10-09T08:13:19.438Z,4.87
2022-10-09T08:15:46.323Z,4.82
2022-10-09T08:18:13.274Z,5.07
2022-10-09T08:20:40.153Z,4.72
2022-10-09T08:23:06.999Z,4.45
2022-10-09T08:25:37.608Z,4.10
2022-10-09T08:28:05.180Z,4.53
2022-10-09T08:30:32.266Z,3.95
2022-10-09T08:32:59.116Z,4.40
2022-10-09T08:35:26.835Z,4.15
2022-10-09T08:37:53.828Z,4.00
2022-10-09T08:40:29.908Z,4.47
2022-10-09T08:43:08.093Z,3.95
2022-10-09T08:45:35.433Z,4.03
2022-10-09T08:48:08.884Z,3.90
2022-10-09T08:50:38.401Z,3.58
2022-10-09T08:53:32.113Z,4.10
2022-10-09T08:56:01.610Z,3.42
2022-10-09T08:58:34.995Z,3.42
2022-10-09T09:01:16.042Z,3.28
2022-10-09T09:03:52.797Z,3.40
2022-10-09T09:06:31.691Z,3.70
2022-10-09T09:09:19.682Z,3.45
2022-10-09T09:11:50.770Z,3.53
2022-10-09T09:14:32.619Z,2.97
2022-10-09T09:17:05.852Z,3.10
2022-10-09T09:19:41.351Z,3.10
2022-10-09T09:22:14.401Z,3.60
2022-10-09T09:24:53.074Z,3.35
2022-10-09T09:27:25.080Z,4.20
2022-10-09T09:30:13.147Z,3.30
2022-10-09T09:33:14.489Z,3.35
2022-10-09T09:36:08.674Z,2.92
2022-10-09T09:38:47.778Z,2.67
2022-10-09T09:41:23.868Z,2.12
2022-10-09T09:43:50.795Z,2.17
2022-10-09T09:46:21.595Z,1.95
2022-10-09T09:48:49.507Z,1.85
2022-10-09T09:51:30.117Z,1.60
2022-10-09T09:54:00.021Z,2.08
2022-10-09T09:56:53.290Z,1.95
2022-10-09T09:59:26.513Z,1.80
2022-10-09T10:02:22.703Z,1.48
2022-10-09T10:04:51.279Z,1.45
2022-10-09T10:07:50.226Z,1.48
2022-10-09T10:10:25.279Z,1.90
2022-10-09T10:12:52.565Z,1.40
2022-10-09T10:15:24.745Z,1.95
2022-10-09T10:18:07.820Z,1.62
2022-10-09T10:20:44.672Z,2.12
2022-10-09T10:23:30.246Z,2.20
2022-10-09T10:25:58.407Z,1.60
2022-10-09T10:28:29.517Z,2.25
2022-10-09T10:30:57.608Z,2.03
2022-10-09T10:33:30.262Z,1.80
2022-10-09T10:35:58.716Z,1.65
2022-10-09T10:38:48.044Z,1.80
2022-10-09T10:41:21.923Z,2.33
2022-10-09T10:43:51.895Z,1.62
2022-10-09T10:46:49.749Z,1.80
2022-10-09T10:49:21.956Z,2.15
2022-10-09T10:52:16.848Z,1.70
2022-10-09T10:54:59.675Z,1.20
2022-10-09T10:57:39.435Z,1.02
2022-10-09T11:00:08.816Z,1.10
2022-10-09T11:02:57.496Z,1.10
2022-10-09T11:05:27.171Z,0.85
2022-10-09T11:08:03.871Z,1.00
2022-10-09T11:10:42.685Z,1.00
2022-10-09T11:13:22.082Z,1.08
2022-10-09T11:16:04.225Z,1.20
2022-10-09T11:18:47.354Z,1.45
2022-10-09T11:21:43.871Z,1.30
2022-10-09T11:24:32.277Z,1.20
2022-10-09T11:27:05.127Z,1.27
2022-10-09T11:29:43.842Z,1.12
2022-10-09T11:32:18.877Z,1.67
2022-10-09T11:34:53.406Z,1.90
2022-10-09T11:37:27.724Z,1.75
2022-10-09T11:39:56.272Z,1.30
2022-10-09T11:42:24.562Z,1.30
2022-10-09T11:45:02.047Z,1.30
2022-10-09T11:47:39.534Z,1.15
2022-10-09T11:50:23.076Z,1.52
2022-10-09T11:52:56.065Z,1.33
2022-10-09T11:55:26.046Z,1.35
2022-10-09T11:57:53.459Z,1.50
2022-10-09T12:00:36.202Z,1.20
2022-10-09T12:03:05.320Z,1.50
2022-10-09T12:05:50.609Z,1.50
2022-10-09T12:08:26.376Z,1.55
2022-10-09T12:11:19.459Z,1.40
2022-10-09T12:13:50.102Z,1.50
2022-10-09T12:16:42.382Z,1.42
2022-10-09T12:19:23.713Z,1.33
2022-10-09T12:22:04.778Z,1.60
2022-10-09T12:24:43.195Z,1.10
2022-10-09T12:27:19.394Z,1.40
2022-10-09T12:29:48.657Z,1.43
2022-10-09T12:32:26.469Z,1.50
2022-10-09T12:34:54.407Z,1.45
2022-10-09T12:37:30.481Z,1.30
2022-10-09T12:40:08.208Z,1.58
2022-10-09T12:42:35.157Z,1.40
2022-10-09T12:45:02.109Z,1.40
2022-10-09T12:47:29.791Z,1.30
2022-10-09T12:50:03.772Z,1.40
2022-10-09T12:52:32.111Z,1.12
2022-10-09T12:54:58.953Z,1.30
2022-10-09T12:57:27.697Z,1.30
2022-10-09T12:59:55.199Z,1.00
2022-10-09T13:02:22.663Z,1.40
2022-10-09T13:04:58.539Z,1.35
2022-10-09T13:07:26.755Z,1.20
2022-10-09T13:09:59.613Z,0.90
2022-10-09T13:12:28.459Z,1.00
2022-10-09T13:15:01.137Z,1.25
2022-10-09T13:17:36.727Z,1.15
2022-10-09T13:20:12.727Z,1.30
2022-10-09T13:22:40.027Z,1.20
2022-10-09T13:25:07.413Z,0.90
2022-10-09T13:27:37.662Z,1.10
2022-10-09T13:30:06.143Z,1.17
2022-10-09T13:32:33.014Z,0.90
2022-10-09T13:34:59.882Z,0.93
2022-10-09T13:37:27.258Z,1.30
2022-10-09T13:39:58.692Z,1.23
2022-10-09T13:42:28.104Z,1.20
2022-10-09T13:44:55.003Z,1.00
2022-10-09T13:47:24.584Z,1.27
2022-10-09T13:49:51.775Z,0.95
2022-10-09T13:52:18.669Z,1.20
2022-10-09T13:54:45.553Z,1.20
2022-10-09T13:57:12.557Z,1.20
2022-10-09T13:59:39.612Z,1.37
2022-10-09T14:02:06.594Z,1.27
2022-10-09T14:04:33.423Z,1.20
2022-10-09T14:07:00.326Z,1.17
2022-10-09T14:09:27.256Z,1.30
2022-10-09T14:11:54.449Z,1.00
2022-10-09T14:14:22.678Z,1.30
2022-10-09T14:16:50.875Z,1.30
2022-10-09T14:19:18.258Z,1.20
2022-10-09T14:21:46.956Z,1.10
2022-10-09T14:24:14.681Z,1.40
2022-10-09T14:26:41.520Z,1.20
2022-10-09T14:29:09.885Z,1.17
2022-10-09T14:31:37.235Z,1.10
2022-10-09T14:34:04.107Z,1.35
2022-10-09T14:36:31.785Z,1.40
2022-10-09T14:39:01.557Z,1.30
2022-10-09T14:41:32.161Z,1.20
2022-10-09T14:44:01.353Z,1.35
2022-10-09T14:46:29.526Z,1.20
2022-10-09T14:48:57.969Z,1.27
2022-10-09T14:51:26.731Z,0.98
2022-10-09T14:53:58.576Z,1.20
2022-10-09T14:56:26.493Z,1.40
2022-10-09T14:58:53.692Z,1.80
2022-10-09T15:01:21.798Z,1.55
2022-10-09T15:03:48.742Z,1.50
2022-10-09T15:06:24.028Z,1.25
2022-10-09T15:08:54.121Z,1.20
2022-10-09T15:11:20.992Z,1.42
2022-10-09T15:13:47.857Z,1.40
2022-10-09T15:16:16.803Z,1.60
2022-10-09T15:18:44.489Z,1.40
2022-10-09T15:21:13.649Z,1.40
2022-10-09T15:23:40.927Z,1.50
2022-10-09T15:26:08.607Z,1.67
2022-10-09T15:28:36.755Z,1.30
2022-10-09T15:31:04.783Z,2.45
2022-10-09T15:33:32.122Z,1.70
2022-10-09T15:35:59.129Z,1.70
2022-10-09T15:38:26.564Z,1.45
2022-10-09T15:40:55.450Z,1.67
2022-10-09T15:43:24.635Z,1.90
2022-10-09T15:45:54.235Z,1.40
2022-10-09T15:48:23.193Z,1.83
2022-10-09T15:50:52.314Z,1.60
2022-10-09T15:53:21.353Z,1.33
2022-10-09T15:55:50.037Z,1.80
2022-10-09T15:58:17.428Z,1.55
2022-10-09T16:00:50.035Z,1.60
2022-10-09T16:03:18.986Z,1.70
2022-10-09T16:05:49.031Z,1.62
2022-10-09T16:08:16.972Z,1.73
2022-10-09T16:10:48.797Z,1.62
2022-10-09T16:13:16.571Z,1.85
2022-10-09T16:15:50.330Z,2.03
2022-10-09T16:18:20.209Z,2.40
2022-10-09T16:20:47.319Z,2.40
2022-10-09T16:23:14.710Z,2.40
2022-10-09T16:25:42.216Z,2.62
2022-10-09T16:28:10.441Z,2.50
2022-10-09T16:30:44.034Z,2.30
2022-10-09T16:33:12.898Z,2.15
2022-10-09T16:35:40.098Z,2.50
2022-10-09T16:38:07.258Z,2.58
2022-10-09T16:43:20.980Z,2.08
2022-10-09T16:45:47.811Z,2.05
2022-10-09T16:48:14.682Z,2.17
2022-10-09T16:50:42.462Z,2.00
2022-10-09T16:53:09.566Z,1.90
2022-10-09T16:55:37.520Z,2.00
2022-10-09T16:58:04.998Z,2.15
2022-10-09T17:00:31.904Z,2.20
2022-10-09T17:02:59.345Z,2.03
2022-10-09T17:05:26.287Z,1.70
2022-10-09T17:07:54.478Z,2.25
2022-10-09T17:10:21.459Z,2.45
2022-10-09T17:12:48.303Z,2.03
2022-10-09T17:15:15.195Z,2.15
2022-10-09T17:17:42.106Z,2.55
2022-10-09T17:20:09.410Z,3.08
2022-10-09T17:22:36.314Z,3.20
2022-10-09T17:25:03.413Z,2.80
2022-10-09T17:27:30.291Z,2.60
2022-10-09T17:29:57.135Z,2.30
2022-10-09T17:32:24.063Z,2.15
2022-10-09T17:34:51.337Z,2.00
2022-10-09T17:37:18.178Z,2.17
2022-10-09T17:39:49.730Z,2.05
2022-10-09T17:42:18.779Z,1.90
2022-10-09T17:44:45.624Z,2.33
2022-10-09T17:47:12.505Z,2.10
2022-10-09T17:49:39.356Z,2.22
2022-10-09T17:52:06.196Z,2.00
2022-10-09T17:54:33.048Z,2.20
2022-10-09T17:57:01.441Z,2.65
2022-10-09T17:59:28.300Z,2.10
2022-10-09T18:01:55.245Z,2.30
2022-10-09T18:04:22.442Z,1.90
2022-10-09T18:06:49.356Z,2.25
2022-10-09T18:09:16.335Z,2.28
2022-10-09T18:11:43.608Z,2.70
2022-10-09T18:14:11.825Z,2.53
2022-10-09T18:16:39.513Z,3.03
2022-10-09T18:19:12.491Z,2.58
2022-10-09T18:21:41.943Z,3.62
2022-10-09T18:24:09.079Z,4.28
2022-10-09T18:26:36.274Z,5.60
2022-10-09T18:29:04.419Z,5.47
2022-10-09T18:31:31.448Z,6.62
2022-10-09T18:33:59.820Z,8.50
2022-10-09T18:36:31.652Z,7.75
2022-10-09T18:39:05.182Z,7.93
2022-10-09T18:41:32.196Z,6.82
2022-10-09T18:44:02.126Z,6.53
2022-10-09T18:46:39.250Z,5.37
2022-10-09T18:49:10.753Z,7.60
2022-10-09T18:51:40.175Z,8.20
2022-10-09T18:54:07.933Z,8.15
2022-10-09T18:56:35.602Z,8.68
2022-10-09T18:59:06.758Z,9.45
2022-10-09T19:01:33.743Z,9.25
2022-10-09T19:04:00.717Z,8.60
2022-10-09T19:06:27.672Z,8.25
2022-10-09T19:08:57.974Z,8.25
2022-10-09T19:11:24.891Z,7.45
2022-10-09T19:13:51.750Z,7.72
2022-10-09T19:16:18.615Z,8.80
2022-10-09T19:18:45.472Z,8.70
2022-10-09T19:21:13.857Z,7.70
2022-10-09T19:23:41.282Z,7.75
2022-10-09T19:26:08.434Z,7.65
2022-10-09T19:28:38.148Z,8.05
2022-10-09T19:31:06.719Z,6.47
2022-10-09T19:33:33.775Z,5.20
2022-10-09T19:36:00.930Z,2.78
2022-10-09T19:38:28.288Z,2.20
2022-10-09T19:40:55.169Z,1.77
2022-10-09T19:43:22.077Z,1.80
2022-10-09T19:45:50.603Z,1.90
2022-10-09T19:48:18.372Z,1.90
2022-10-09T19:50:45.803Z,1.80
2022-10-09T19:53:13.524Z,1.75
2022-10-09T19:55:40.618Z,2.15
2022-10-09T19:58:07.647Z,2.12
2022-10-09T20:00:34.479Z,2.15
2022-10-09T20:03:01.307Z,1.80
2022-10-09T20:05:28.216Z,2.45
2022-10-09T20:07:55.064Z,2.00
2022-10-09T20:10:21.950Z,2.00
2022-10-09T20:12:49.027Z,1.90
2022-10-09T20:15:16.152Z,1.70
2022-10-09T20:17:42.975Z,1.80
2022-10-09T20:20:10.260Z,2.40
2022-10-09T20:22:37.162Z,2.10
2022-10-09T20:25:04.501Z,2.65
2022-10-09T20:27:31.755Z,5.12
2022-10-09T20:29:58.683Z,6.87
2022-10-09T20:32:25.777Z,8.57
2022-10-09T20:34:52.647Z,6.68
2022-10-09T20:37:19.737Z,6.35
2022-10-09T20:39:46.674Z,5.78
2022-10-09T20:42:13.565Z,10.88
2022-10-09T20:44:40.508Z,13.10
2022-10-09T20:47:07.815Z,21.40
2022-10-09T20:49:34.667Z,21.90
2022-10-09T20:52:01.538Z,28.10
2022-10-09T20:54:30.513Z,8.70
2022-10-09T20:56:57.423Z,12.68
2022-10-09T20:59:24.304Z,16.98
2022-10-09T21:01:51.142Z,22.62
2022-10-09T21:04:18.005Z,35.40
2022-10-09T21:06:44.839Z,33.03
2022-10-09T21:09:11.775Z,28.87
2022-10-09T21:11:40.456Z,29.98
2022-10-09T21:14:07.444Z,26.73
2022-10-09T21:16:34.338Z,18.98
2022-10-09T21:19:04.149Z,14.35
2022-10-09T21:21:31.933Z,9.43
2022-10-09T21:24:00.069Z,11.15
2022-10-09T21:26:28.603Z,10.20
2022-10-09T21:28:59.260Z,10.93
2022-10-09T21:31:28.714Z,14.18
2022-10-09T21:33:55.767Z,18.20
2022-10-09T21:36:56.192Z,9.80
2022-10-09T21:39:30.687Z,4.60
2022-10-09T21:41:57.610Z,2.72
2022-10-09T21:44:24.557Z,2.03
2022-10-09T21:46:51.380Z,2.20
2022-10-09T21:49:25.931Z,2.10
2022-10-09T21:51:53.290Z,2.40
2022-10-09T21:54:20.528Z,2.60
2022-10-09T21:56:47.498Z,2.25
2022-10-09T21:59:14.460Z,2.60
2022-10-09T22:01:41.367Z,2.33
2022-10-09T22:04:08.226Z,2.60
2022-10-09T22:06:35.080Z,2.90
2022-10-09T22:09:01.981Z,3.03
2022-10-09T22:11:28.932Z,2.97
2022-10-09T22:13:56.224Z,3.17
2022-10-09T22:16:23.461Z,2.85
2022-10-09T22:18:50.303Z,3.12
2022-10-09T22:21:19.002Z,2.90
2022-10-09T22:23:45.878Z,3.10
2022-10-09T22:26:16.805Z,3.37
2022-10-09T22:28:44.819Z,2.72
2022-10-09T22:31:19.250Z,2.92
2022-10-09T22:33:53.642Z,3.12
2022-10-09T22:36:22.054Z,2.90
2022-10-09T22:38:48.904Z,3.00
2022-10-09T22:41:20.267Z,3.05
2022-10-09T22:43:49.150Z,2.67
2022-10-09T22:46:19.211Z,2.30
2022-10-09T22:48:46.369Z,2.53
2022-10-09T22:51:16.248Z,1.98
2022-10-09T22:53:44.485Z,2.50
2022-10-09T22:56:19.628Z,2.53
2022-10-09T22:58:47.330Z,2.17
2022-10-09T23:01:22.159Z,2.83
2022-10-09T23:03:49.132Z,2.50
2022-10-09T23:06:18.492Z,2.60
2022-10-09T23:08:47.356Z,2.20
2022-10-09T23:11:15.976Z,2.40
2022-10-09T23:13:44.124Z,2.30
2022-10-09T23:16:12.226Z,2.22
2022-10-09T23:18:40.296Z,2.40
2022-10-09T23:21:13.633Z,2.47
2022-10-09T23:23:41.029Z,2.10
2022-10-09T23:26:10.067Z,2.50
2022-10-09T23:28:37.060Z,3.03
2022-10-09T23:31:06.480Z,3.20
2022-10-09T23:33:33.381Z,2.80
2022-10-09T23:36:02.703Z,2.35
2022-10-09T23:38:29.571Z,2.80
2022-10-09T23:41:01.482Z,2.90
2022-10-09T23:43:29.379Z,2.80
2022-10-09T23:45:57.689Z,3.10
2022-10-09T23:48:24.667Z,2.90
2022-10-09T23:50:52.987Z,3.50
2022-10-09T23:53:20.388Z,3.50
2022-10-09T23:55:47.389Z,2.83
2022-10-09T23:58:19.860Z,3.20
